Airfield :
LOGIN :

Register | Disclaimer

   EN    FR    IT 

 










Legend :    VFR   Marginal VFR   IFR   Intensive IFR   Very Intensive IFR
Visi :
Ceiling :
>= 8 km
>= 3000ft
5 to 8 km
1000 to 3000 ft
1500m to 5 km
500 to 1000 ft
800 to 1500m
200 to 500 ft
< 800m
< 200 ft
Symbols :   Thunderstorms  Fog  Heavy snow  Heavy precipitations  Wind > 20 kt
SIGMETs :     Misc.  Thunderstorms  Icing  Turbulence  Mountain Waves  Volcanic Ashes







- Airport Elevation : 82 ft
- IATA code : AAR


EKAH - Aarhus Tirstrup

CURRENT METAR :
  • 170050Z AUTO 23002KT 9999NDV FEW016/// FEW022/// 18/16 Q1013

EXPIRED METARs :
  • 170020Z AUTO 23004KT 190V270 9999NDV BKN013/// 18/16 Q1013
  • 162350Z AUTO VRB02KT 9999NDV BKN016/// 18/16 Q1013
  • 162320Z AUTO 19002KT 9999NDV SCT018/// 19/16 Q1013
  • 162250Z AUTO 23002KT 9999NDV FEW019/// 18/16 Q1013
  • 162220Z AUTO 18003KT 9999NDV FEW055/// 19/16 Q1013

TAF TAF EKAH
Valid from the 17 at 00:00 until the 18 at 00:00 UTC


162303Z 1700/1724 20008KT 9999 BKN020
TEMPO 1700/1702 BKN012
TEMPO 1702/1710 4000 RA BR BKN008 SCT030CB
BECMG 1712/1715 26010KT
No reported NOTAMs for that airfield.



MET'MAP, your aeronautical weather chart ! - Copyright ORBIFLY December 2007 - Disclaimer

ORBIFLY MET'MAP TEAM :

Programming & Development : Alexandra Zaïnal
Concept & Development : Baudouin d'Aumeries
Co-Development & Prog : Marc-Olivier Méhu
Technical & hardware support : Manuel Goepfert

Contact : metmap@orbifly.com




SOURCES & CREDITS :

   NOAA